createdAt,value
2023-05-10T00:01:09.964Z,5.00
2023-05-10T00:03:58.954Z,4.90
2023-05-10T00:06:47.834Z,4.50
2023-05-10T00:09:37.434Z,5.00
2023-05-10T00:12:25.986Z,5.10
2023-05-10T00:15:14.906Z,5.70
2023-05-10T00:18:03.599Z,5.00
2023-05-10T00:20:52.424Z,5.10
2023-05-10T00:23:41.302Z,5.00
2023-05-10T00:26:30.340Z,5.60
2023-05-10T00:29:19.453Z,5.60
2023-05-10T00:32:08.545Z,5.30
2023-05-10T00:34:57.578Z,5.30
2023-05-10T00:37:46.377Z,4.90
2023-05-10T00:40:38.714Z,5.80
2023-05-10T00:43:30.955Z,5.90
2023-05-10T00:46:20.065Z,6.10
2023-05-10T00:49:09.004Z,5.30
2023-05-10T00:51:58.426Z,5.10
2023-05-10T00:54:48.856Z,5.10
2023-05-10T00:57:37.684Z,5.60
2023-05-10T01:00:27.189Z,5.90
2023-05-10T01:03:33.759Z,5.90
2023-05-10T01:06:23.076Z,5.00
2023-05-10T01:09:12.753Z,5.60
2023-05-10T01:12:03.205Z,4.90
2023-05-10T01:14:52.339Z,5.10
2023-05-10T01:17:45.688Z,5.30
2023-05-10T01:20:44.411Z,4.80
2023-05-10T01:23:36.117Z,5.40
2023-05-10T01:26:59.937Z,5.50
2023-05-10T01:30:15.671Z,6.00
2023-05-10T01:33:25.977Z,4.50
2023-05-10T01:36:30.719Z,5.40
2023-05-10T01:39:30.812Z,5.00
2023-05-10T01:42:24.636Z,6.50
2023-05-10T01:45:31.887Z,5.40
2023-05-10T01:48:22.206Z,5.70
2023-05-10T01:51:11.852Z,5.20
2023-05-10T01:54:03.571Z,4.60
2023-05-10T01:57:00.508Z,4.60
2023-05-10T01:59:51.843Z,5.30
2023-05-10T02:02:45.662Z,5.60
2023-05-10T02:05:35.522Z,5.60
2023-05-10T02:08:25.450Z,6.30
2023-05-10T02:11:15.230Z,5.90
2023-05-10T02:14:06.635Z,6.70
2023-05-10T02:16:58.348Z,5.40
2023-05-10T02:19:48.398Z,5.60
2023-05-10T02:22:38.165Z,4.90
2023-05-10T02:25:28.153Z,5.60
2023-05-10T02:28:18.894Z,5.90
2023-05-10T02:31:08.477Z,5.50
2023-05-10T02:33:59.313Z,4.90
2023-05-10T02:36:48.964Z,4.40
2023-05-10T02:39:39.615Z,5.20
2023-05-10T02:42:30.245Z,5.30
2023-05-10T02:45:23.162Z,5.60
2023-05-10T02:48:11.962Z,4.80
2023-05-10T02:51:06.862Z,4.70
2023-05-10T02:53:57.630Z,5.50
2023-05-10T02:56:55.185Z,5.30
2023-05-10T02:59:44.100Z,4.90
2023-05-10T03:02:33.050Z,4.90
2023-05-10T03:05:22.410Z,5.20
2023-05-10T03:08:11.445Z,6.30
2023-05-10T03:11:46.387Z,5.00
2023-05-10T03:14:53.890Z,5.30
2023-05-10T03:17:42.743Z,4.60
2023-05-10T03:20:44.752Z,5.00
2023-05-10T03:23:44.110Z,5.20
2023-05-10T03:26:33.759Z,4.20
2023-05-10T03:29:31.895Z,5.30
2023-05-10T03:32:20.595Z,4.70
2023-05-10T03:35:10.664Z,5.00
2023-05-10T03:38:00.223Z,5.30
2023-05-10T03:40:49.425Z,4.80
2023-05-10T03:43:38.341Z,4.90
2023-05-10T03:46:27.060Z,5.30
2023-05-10T03:49:15.855Z,5.10
2023-05-10T03:52:05.013Z,5.10
2023-05-10T03:54:53.972Z,5.00
2023-05-10T03:57:43.720Z,5.90
2023-05-10T04:00:32.788Z,5.90
2023-05-10T04:03:22.476Z,5.80
2023-05-10T04:06:13.105Z,5.20
2023-05-10T04:09:05.086Z,5.10
2023-05-10T04:11:58.006Z,4.70
2023-05-10T04:14:47.054Z,5.10
2023-05-10T04:17:35.702Z,4.60
2023-05-10T04:20:24.502Z,4.20
2023-05-10T04:23:13.475Z,4.70
2023-05-10T04:26:03.463Z,5.30
2023-05-10T04:28:52.203Z,4.70
2023-05-10T04:31:41.178Z,4.40
2023-05-10T04:34:30.326Z,4.50
2023-05-10T04:37:19.335Z,4.50
2023-05-10T04:40:08.537Z,4.90
2023-05-10T04:42:57.537Z,4.60
2023-05-10T04:45:46.290Z,4.80
2023-05-10T04:48:35.223Z,4.90
2023-05-10T04:51:23.775Z,4.60
2023-05-10T04:54:13.084Z,4.90
2023-05-10T04:57:01.723Z,4.50
2023-05-10T04:59:50.677Z,4.30
2023-05-10T05:02:39.538Z,4.20
2023-05-10T05:05:28.592Z,4.40
2023-05-10T05:08:17.463Z,4.20
2023-05-10T05:11:06.368Z,4.30
2023-05-10T05:13:55.502Z,4.30
2023-05-10T05:16:44.673Z,4.20
2023-05-10T05:19:33.461Z,4.40
2023-05-10T05:22:28.619Z,4.30
2023-05-10T05:25:17.476Z,4.40
2023-05-10T05:28:06.508Z,3.70
2023-05-10T05:30:56.896Z,3.80
2023-05-10T05:33:45.655Z,3.90
2023-05-10T05:36:39.274Z,3.90
2023-05-10T05:39:28.143Z,4.60
2023-05-10T05:42:18.653Z,3.70
2023-05-10T05:45:08.346Z,4.00
2023-05-10T05:47:57.278Z,3.80
2023-05-10T05:50:47.179Z,3.90
2023-05-10T05:53:36.000Z,4.00
2023-05-10T05:56:25.715Z,3.50
2023-05-10T05:59:14.495Z,3.60
2023-05-10T06:02:03.404Z,4.10
2023-05-10T06:04:52.171Z,3.90
2023-05-10T06:07:43.541Z,4.30
2023-05-10T06:13:21.599Z,3.90
2023-05-10T06:16:10.688Z,3.80
2023-05-10T06:18:59.644Z,3.50
2023-05-10T06:21:48.296Z,4.20
2023-05-10T06:24:37.284Z,3.40
2023-05-10T06:27:25.985Z,3.90
2023-05-10T06:30:16.387Z,3.40
2023-05-10T06:33:05.267Z,3.50
2023-05-10T06:35:54.554Z,3.90
2023-05-10T06:38:43.268Z,4.20
2023-05-10T06:41:32.067Z,3.50
2023-05-10T06:44:20.776Z,3.40
2023-05-10T06:47:09.971Z,3.50
2023-05-10T06:49:58.785Z,4.00
2023-05-10T06:52:47.537Z,4.00
2023-05-10T06:55:36.383Z,3.00
2023-05-10T06:58:26.277Z,3.80
2023-05-10T07:01:15.212Z,3.70
2023-05-10T07:04:03.964Z,3.60
2023-05-10T07:06:52.841Z,3.40
2023-05-10T07:09:41.930Z,3.90
2023-05-10T07:12:31.553Z,3.40
2023-05-10T07:15:20.596Z,3.70
2023-05-10T07:18:09.450Z,3.20
2023-05-10T07:20:59.201Z,3.50
2023-05-10T07:23:47.709Z,3.50
2023-05-10T07:26:36.842Z,3.60
2023-05-10T07:29:25.400Z,3.50
2023-05-10T07:32:14.601Z,3.30
2023-05-10T07:35:03.456Z,3.70
2023-05-10T07:37:52.754Z,3.70
2023-05-10T07:40:41.469Z,3.60
2023-05-10T07:43:31.033Z,3.10
2023-05-10T07:46:21.037Z,3.00
2023-05-10T07:49:10.261Z,3.10
2023-05-10T07:51:58.785Z,3.80
2023-05-10T07:54:47.845Z,3.10
2023-05-10T07:57:36.789Z,4.50
2023-05-10T08:00:25.722Z,3.40
2023-05-10T08:03:14.359Z,3.10
2023-05-10T08:06:03.645Z,3.20
2023-05-10T08:08:53.243Z,3.30
2023-05-10T08:11:42.218Z,3.40
2023-05-10T08:14:30.867Z,3.10
2023-05-10T08:17:20.573Z,3.30
2023-05-10T08:20:10.743Z,3.50
2023-05-10T08:23:00.547Z,3.30
2023-05-10T08:25:49.167Z,3.20
2023-05-10T08:28:38.308Z,3.20
2023-05-10T08:31:26.898Z,3.20
2023-05-10T08:34:16.196Z,2.70
2023-05-10T08:37:04.850Z,3.50
2023-05-10T08:39:54.237Z,2.60
2023-05-10T08:42:55.399Z,2.70
2023-05-10T08:45:49.131Z,2.80
2023-05-10T08:48:39.768Z,2.50
2023-05-10T08:51:33.741Z,2.80
2023-05-10T08:54:22.946Z,2.50
2023-05-10T08:57:12.224Z,2.70
2023-05-10T09:00:02.162Z,2.80
2023-05-10T09:02:51.707Z,2.40
2023-05-10T09:05:40.786Z,2.60
2023-05-10T09:08:30.549Z,2.20
2023-05-10T09:11:19.119Z,2.50
2023-05-10T09:14:08.228Z,2.50
2023-05-10T09:16:57.434Z,2.60
2023-05-10T09:19:46.799Z,2.60
2023-05-10T09:22:36.033Z,2.80
2023-05-10T09:25:24.660Z,2.40
2023-05-10T09:28:13.392Z,2.50
2023-05-10T09:31:02.422Z,2.40
2023-05-10T09:33:51.858Z,2.60
2023-05-10T09:36:55.672Z,2.80
2023-05-10T09:39:44.332Z,2.40
2023-05-10T09:42:33.322Z,2.20
2023-05-10T09:45:23.740Z,2.40
2023-05-10T09:48:12.676Z,2.60
2023-05-10T09:51:02.239Z,3.40
2023-05-10T09:54:14.176Z,2.60
2023-05-10T09:57:03.366Z,2.70
2023-05-10T09:59:53.026Z,2.30
2023-05-10T10:02:41.688Z,2.50
2023-05-10T10:05:37.113Z,2.30
2023-05-10T10:08:26.231Z,2.60
2023-05-10T10:11:15.164Z,2.30
2023-05-10T10:14:03.694Z,2.10
2023-05-10T10:17:06.527Z,2.10
2023-05-10T10:19:56.656Z,2.50
2023-05-10T10:22:45.463Z,2.50
2023-05-10T10:25:34.351Z,2.50
2023-05-10T10:28:53.108Z,2.50
2023-05-10T10:32:12.549Z,2.30
2023-05-10T10:35:02.028Z,2.20
2023-05-10T10:37:52.747Z,2.50
2023-05-10T10:40:41.832Z,1.80
2023-05-10T10:43:30.940Z,2.20
2023-05-10T10:46:22.021Z,2.50
2023-05-10T10:49:11.100Z,2.30
2023-05-10T10:52:19.236Z,2.20
2023-05-10T10:55:10.540Z,2.50
2023-05-10T10:58:02.066Z,2.40
2023-05-10T11:00:50.747Z,2.30
2023-05-10T11:03:39.927Z,2.10
2023-05-10T11:06:36.804Z,2.00
2023-05-10T11:09:25.998Z,2.80
2023-05-10T11:12:16.949Z,2.40
2023-05-10T11:15:10.393Z,2.20
2023-05-10T11:17:59.390Z,2.00
2023-05-10T11:20:59.804Z,2.00
2023-05-10T11:23:59.439Z,2.10
2023-05-10T11:26:51.523Z,2.20
2023-05-10T11:29:40.143Z,2.00
2023-05-10T11:32:29.337Z,2.00
2023-05-10T11:35:17.895Z,2.40
2023-05-10T11:38:08.153Z,2.30
2023-05-10T11:40:56.809Z,2.00
2023-05-10T11:43:49.953Z,2.10
2023-05-10T11:46:38.591Z,2.20
2023-05-10T11:52:19.995Z,2.30
2023-05-10T11:58:02.615Z,2.30
2023-05-10T12:00:52.450Z,2.20
2023-05-10T12:03:41.672Z,2.70
2023-05-10T12:06:33.929Z,2.80
2023-05-10T12:09:35.413Z,2.70
2023-05-10T12:12:26.336Z,2.40
2023-05-10T12:15:20.886Z,2.60
2023-05-10T12:18:13.962Z,2.40
2023-05-10T12:21:05.357Z,2.40
2023-05-10T12:23:56.687Z,2.60
2023-05-10T12:29:53.785Z,2.30
2023-05-10T12:32:43.304Z,2.40
2023-05-10T12:35:32.716Z,2.30
2023-05-10T12:38:33.074Z,2.40
2023-05-10T12:41:22.328Z,2.50
2023-05-10T12:44:11.198Z,2.00
2023-05-10T12:47:00.212Z,2.10
2023-05-10T12:49:48.742Z,2.60
2023-05-10T12:52:38.239Z,2.90
2023-05-10T12:55:26.797Z,2.30
2023-05-10T12:58:31.419Z,2.70
2023-05-10T13:01:23.948Z,2.40
2023-05-10T13:04:13.114Z,2.10
2023-05-10T13:07:01.683Z,2.40
2023-05-10T13:09:50.888Z,2.40
2023-05-10T13:12:39.462Z,2.40
2023-05-10T13:15:28.603Z,2.60
2023-05-10T13:18:17.133Z,2.50
2023-05-10T13:21:06.694Z,2.10
2023-05-10T13:23:55.258Z,2.60
2023-05-10T13:26:44.551Z,2.10
2023-05-10T13:29:33.102Z,2.20
2023-05-10T13:32:22.192Z,2.20
2023-05-10T13:35:10.844Z,2.30
2023-05-10T13:37:59.832Z,2.30
2023-05-10T13:40:48.408Z,2.40
2023-05-10T13:43:38.150Z,2.20
2023-05-10T13:46:26.614Z,2.30
2023-05-10T13:49:15.390Z,2.20
2023-05-10T13:52:07.786Z,2.10
2023-05-10T13:54:57.087Z,2.30
2023-05-10T13:57:45.765Z,2.40
2023-05-10T14:00:35.038Z,2.30
2023-05-10T14:03:26.509Z,2.60
2023-05-10T14:06:15.603Z,2.50
2023-05-10T14:09:04.812Z,2.60
2023-05-10T14:11:54.068Z,2.30
2023-05-10T14:17:33.645Z,2.40
2023-05-10T14:20:22.592Z,2.70
2023-05-10T14:23:12.222Z,2.50
2023-05-10T14:26:00.852Z,2.20
2023-05-10T14:28:50.557Z,2.10
2023-05-10T14:31:41.559Z,2.30
2023-05-10T14:34:33.982Z,2.20
2023-05-10T14:37:22.854Z,2.40
2023-05-10T14:40:13.008Z,2.30
2023-05-10T14:43:01.675Z,2.40
2023-05-10T14:45:50.486Z,2.60
2023-05-10T14:48:38.974Z,2.40
2023-05-10T14:51:27.695Z,2.10
2023-05-10T14:54:16.253Z,2.40
2023-05-10T14:57:05.258Z,2.40
2023-05-10T14:59:55.884Z,2.20
2023-05-10T15:02:45.592Z,2.80
2023-05-10T15:05:38.386Z,2.30
2023-05-10T15:08:27.479Z,2.00
2023-05-10T15:11:16.095Z,2.40
2023-05-10T15:14:07.237Z,2.50
2023-05-10T15:16:56.245Z,2.90
2023-05-10T15:19:45.226Z,2.90
2023-05-10T15:22:34.494Z,2.80
2023-05-10T15:25:24.984Z,2.90
2023-05-10T15:28:13.655Z,3.00
2023-05-10T15:31:06.032Z,2.60
2023-05-10T15:34:00.383Z,2.20
2023-05-10T15:36:49.421Z,2.90
2023-05-10T15:39:41.060Z,2.80
2023-05-10T15:42:32.937Z,2.60
2023-05-10T15:45:21.443Z,2.90
2023-05-10T15:48:10.445Z,2.80
2023-05-10T15:50:59.122Z,2.40
2023-05-10T15:54:05.227Z,2.20
2023-05-10T15:56:55.291Z,2.50
2023-05-10T15:59:44.137Z,2.80
2023-05-10T16:02:32.812Z,3.30
2023-05-10T16:05:22.637Z,2.70
2023-05-10T16:08:11.162Z,2.70
2023-05-10T16:11:00.977Z,3.00
2023-05-10T16:13:49.498Z,2.80
2023-05-10T16:16:38.651Z,3.10
2023-05-10T16:19:29.157Z,2.60
2023-05-10T16:22:19.248Z,2.90
2023-05-10T16:25:08.392Z,2.50
2023-05-10T16:27:57.704Z,2.60
2023-05-10T16:30:47.503Z,2.50
2023-05-10T16:33:37.430Z,2.40
2023-05-10T16:36:26.294Z,3.10
2023-05-10T16:39:15.129Z,2.50
2023-05-10T16:42:03.861Z,2.70
2023-05-10T16:44:54.484Z,3.00
2023-05-10T16:47:46.427Z,2.90
2023-05-10T16:50:36.579Z,3.20
2023-05-10T16:53:25.129Z,2.20
2023-05-10T16:56:14.430Z,2.60
2023-05-10T16:59:03.828Z,2.90
2023-05-10T17:01:53.397Z,2.80
2023-05-10T17:04:42.872Z,3.00
2023-05-10T17:07:32.014Z,2.70
2023-05-10T17:10:20.659Z,2.60
2023-05-10T17:13:10.605Z,2.80
2023-05-10T17:16:03.667Z,2.60
2023-05-10T17:18:56.082Z,2.70
2023-05-10T17:21:44.763Z,2.70
2023-05-10T17:24:33.715Z,2.60
2023-05-10T17:27:22.218Z,2.80
2023-05-10T17:30:11.925Z,2.60
2023-05-10T17:33:01.013Z,2.80
2023-05-10T17:35:50.897Z,2.70
2023-05-10T17:38:39.620Z,2.90
2023-05-10T17:41:29.195Z,2.70
2023-05-10T17:44:17.774Z,3.90
2023-05-10T17:47:06.576Z,4.20
2023-05-10T17:49:55.100Z,4.50
2023-05-10T17:52:44.062Z,4.30
2023-05-10T17:55:33.526Z,4.20
2023-05-10T17:58:22.459Z,4.70
2023-05-10T18:01:11.219Z,4.80
2023-05-10T18:04:00.333Z,4.30
2023-05-10T18:06:49.394Z,3.30
2023-05-10T18:09:39.209Z,4.10
2023-05-10T18:12:27.998Z,3.20
2023-05-10T18:15:17.309Z,4.00
2023-05-10T18:18:05.952Z,3.40
2023-05-10T18:20:58.018Z,3.20
2023-05-10T18:23:47.051Z,3.10
2023-05-10T18:26:36.022Z,3.70
2023-05-10T18:29:24.606Z,3.50
2023-05-10T18:32:13.584Z,3.30
2023-05-10T18:35:04.527Z,3.50
2023-05-10T18:37:53.602Z,3.30
2023-05-10T18:40:42.417Z,3.30
2023-05-10T18:43:31.650Z,4.00
2023-05-10T18:46:20.792Z,3.90
2023-05-10T18:49:09.808Z,3.80
2023-05-10T18:51:58.498Z,3.60
2023-05-10T18:54:47.736Z,4.30
2023-05-10T18:57:41.802Z,6.20
2023-05-10T19:00:30.874Z,7.00
2023-05-10T19:03:20.628Z,11.50
2023-05-10T19:06:10.019Z,17.20
2023-05-10T19:08:59.113Z,14.10
2023-05-10T19:11:48.526Z,14.50
2023-05-10T19:14:37.027Z,20.30
2023-05-10T19:17:26.600Z,16.10
2023-05-10T19:20:15.108Z,10.80
2023-05-10T19:25:58.616Z,5.60
2023-05-10T19:28:47.530Z,4.70
2023-05-10T19:31:36.174Z,4.70
2023-05-10T19:34:25.088Z,3.40
2023-05-10T19:37:13.766Z,4.70
2023-05-10T19:40:02.965Z,4.50
2023-05-10T19:42:52.718Z,8.50
2023-05-10T19:45:42.001Z,9.80
2023-05-10T19:48:30.832Z,5.60
2023-05-10T19:51:19.709Z,10.90
2023-05-10T19:54:08.434Z,4.50
2023-05-10T19:56:57.330Z,4.30
2023-05-10T19:59:45.831Z,4.10
2023-05-10T20:02:34.734Z,4.00
2023-05-10T20:05:23.885Z,3.80
2023-05-10T20:08:13.046Z,3.90
2023-05-10T20:11:03.737Z,4.20
2023-05-10T20:13:53.020Z,5.40
2023-05-10T20:16:41.675Z,3.90
2023-05-10T20:19:30.665Z,3.20
2023-05-10T20:22:19.113Z,3.30
2023-05-10T20:25:08.387Z,2.90
2023-05-10T20:27:57.052Z,3.20
2023-05-10T20:30:45.913Z,2.60
2023-05-10T20:33:34.419Z,3.00
2023-05-10T20:36:23.406Z,2.50
2023-05-10T20:39:12.129Z,2.70
2023-05-10T20:42:01.105Z,2.90
2023-05-10T20:44:50.286Z,3.50
2023-05-10T20:47:39.455Z,2.70
2023-05-10T20:50:28.111Z,2.90
2023-05-10T20:53:18.588Z,2.90
2023-05-10T20:56:07.318Z,5.10
2023-05-10T20:58:56.682Z,3.20
2023-05-10T21:01:45.539Z,2.90
2023-05-10T21:04:35.305Z,3.00
2023-05-10T21:07:24.563Z,3.10
2023-05-10T21:10:13.772Z,3.70
2023-05-10T21:13:02.456Z,5.40
2023-05-10T21:15:51.605Z,7.60
2023-05-10T21:18:40.160Z,9.50
2023-05-10T21:21:29.674Z,13.00
2023-05-10T21:24:18.295Z,10.40
2023-05-10T21:27:09.152Z,18.10
2023-05-10T21:29:57.718Z,15.00
2023-05-10T21:32:47.191Z,8.40
2023-05-10T21:35:35.987Z,5.50
2023-05-10T21:38:25.425Z,7.90
2023-05-10T21:41:14.059Z,7.60
2023-05-10T21:44:03.331Z,7.90
2023-05-10T21:46:51.973Z,11.80
2023-05-10T21:49:40.967Z,6.90
2023-05-10T21:52:29.594Z,11.30
2023-05-10T21:55:19.649Z,9.20
2023-05-10T21:58:08.202Z,6.20
2023-05-10T22:01:00.809Z,4.80
2023-05-10T22:03:49.310Z,4.30
2023-05-10T22:06:38.731Z,4.00
2023-05-10T22:09:27.261Z,4.30
2023-05-10T22:12:16.240Z,4.60
2023-05-10T22:15:10.854Z,6.50
2023-05-10T22:18:00.090Z,9.50
2023-05-10T22:20:48.689Z,11.70
2023-05-10T22:23:37.608Z,8.90
2023-05-10T22:26:26.127Z,8.20
2023-05-10T22:29:14.909Z,10.30
2023-05-10T22:32:05.906Z,6.40
2023-05-10T22:37:43.328Z,4.90
2023-05-10T22:40:32.569Z,4.70
2023-05-10T22:43:21.269Z,4.10
2023-05-10T22:46:10.702Z,7.90
2023-05-10T22:48:59.810Z,6.40
2023-05-10T22:51:48.590Z,7.00
2023-05-10T22:54:37.261Z,10.30
2023-05-10T22:57:26.676Z,11.40
2023-05-10T23:00:16.004Z,8.10
2023-05-10T23:03:06.752Z,6.10
2023-05-10T23:05:55.373Z,5.70
2023-05-10T23:08:44.601Z,5.20
2023-05-10T23:11:33.116Z,5.30
2023-05-10T23:14:22.024Z,4.70
2023-05-10T23:17:10.497Z,7.60
2023-05-10T23:20:00.192Z,10.10
2023-05-10T23:22:49.603Z,10.40
2023-05-10T23:25:38.890Z,9.60
2023-05-10T23:28:27.749Z,7.80
2023-05-10T23:31:17.090Z,9.20
2023-05-10T23:34:05.562Z,6.70
2023-05-10T23:36:54.777Z,6.10
2023-05-10T23:39:43.328Z,5.40
2023-05-10T23:42:32.757Z,5.60
2023-05-10T23:45:21.392Z,5.10
2023-05-10T23:48:10.132Z,8.10
2023-05-10T23:50:58.914Z,9.20
2023-05-10T23:53:48.079Z,8.90
2023-05-10T23:56:36.702Z,9.10
2023-05-10T23:59:25.849Z,10.90
